KPKB/PKB METAR and TAF weather

Enter ICAO airport designator
Station Type Date Time Source
KPKB METAR 2019/04/22 17:53 UTC NOAA

KPKB 221753Z 33003KT 10SM CLR 19/07 A3025 RMK AO2 SLP241 T01940072 10194 20061 58017


Station Type Date Time Source
KPKB Decoded METAR 2019/04/22 17:53 UTC NOAA

MID-OHIO VALLEY RGNL AIRPORT, WV, United States (KPKB) 39-20N 81-27W
Apr 22, 2019 - 01:53 PM EDT / 2019.04.22 1753 UTC
Wind: from the NNW (330 degrees) at 3 MPH (3 KT):0
Visibility: 10 mile(s):0
Sky conditions: clear
Temperature: 66.9 F (19.4 C)
Dew Point: 45.0 F (7.2 C)
Relative Humidity: 45%
Pressure (altimeter): 30.25 in. Hg (1024 hPa)
Pressure tendency: 0.05 inches (1.7 hPa) lower than three hours ago
ob: KPKB 221753Z 33003KT 10SM CLR 19/07 A3025 RMK AO2 SLP241 T01940072 10194 20061 58017
cycle: 18

Station Type Date Time Source
KPKB TAF 2019/04/22 18:36 UTC NOAA

TAF KPKB 221732Z 2218/2318 30004KT P6SM SKC
FM231300 20009KT P6SM FEW250
FM231600 23011G19KT P6SM FEW250

Example: see airport list